Time;durP1;ratioP1;P1;durP2;ratioP2;P2;SDS_P1;SDS_P2;PMS_P1;PMS_P2;Temp;Humidity;BMP_temperature;BMP_pressure;BME280_temperature;BME280_humidity;BME280_pressure;Samples;Min_cycle;Max_cycle;Signal;HPM_P1;HPM_P2
2021/05/27 00:00:49;;;;;;;6.30;5.00;;;10.30;98.30;;;;;;4136918;28;20902;-84
2021/05/27 00:02:52;;;;;;;5.83;4.90;;;10.20;98.30;;;;;;4136946;28;20494;-84
2021/05/27 00:04:54;;;;;;;7.23;5.03;;;10.20;98.30;;;;;;4134974;28;20478;-84
2021/05/27 00:06:57;;;;;;;5.93;5.07;;;10.20;98.30;;;;;;4136749;28;20466;-84
2021/05/27 00:09:00;;;;;;;5.10;4.50;;;10.20;98.30;;;;;;4140232;28;20469;-85
2021/05/27 00:11:03;;;;;;;9.23;6.07;;;10.20;98.30;;;;;;4138899;28;20468;-85
2021/05/27 00:13:05;;;;;;;12.40;5.50;;;10.20;98.30;;;;;;4133541;28;20991;-85
2021/05/27 00:15:16;;;;;;;10.07;6.37;;;10.20;98.30;;;;;;4132504;28;20458;-85
2021/05/27 00:17:20;;;;;;;7.50;5.63;;;10.20;98.30;;;;;;4133007;28;20833;-85
2021/05/27 00:19:22;;;;;;;10.10;6.57;;;10.20;98.30;;;;;;4132120;28;20463;-85
2021/05/27 00:21:25;;;;;;;9.90;5.70;;;10.20;98.30;;;;;;4127628;28;20572;-85
2021/05/27 00:23:27;;;;;;;8.50;5.33;;;10.20;98.30;;;;;;4139040;28;20466;-84
2021/05/27 00:25:31;;;;;;;5.13;4.63;;;10.20;98.30;;;;;;4133121;28;20471;-84
2021/05/27 00:27:33;;;;;;;10.17;5.43;;;10.10;98.30;;;;;;4134986;28;20482;-85
2021/05/27 00:29:36;;;;;;;8.60;5.97;;;10.10;98.30;;;;;;4134073;28;20968;-85
2021/05/27 00:31:39;;;;;;;6.30;4.50;;;10.10;98.30;;;;;;4137301;28;20495;-84
2021/05/27 00:33:41;;;;;;;4.77;4.27;;;10.10;98.30;;;;;;4136619;28;20473;-84
2021/05/27 00:35:44;;;;;;;7.43;5.47;;;10.10;98.30;;;;;;4138292;28;21004;-84
2021/05/27 00:37:46;;;;;;;5.63;4.70;;;10.10;98.30;;;;;;4133544;28;20554;-84
2021/05/27 00:39:49;;;;;;;5.20;4.30;;;10.10;98.30;;;;;;4135114;28;20466;-84
2021/05/27 00:41:52;;;;;;;5.20;4.57;;;10.10;98.30;;;;;;4137017;28;20494;-84
2021/05/27 00:43:54;;;;;;;11.00;4.93;;;10.00;98.30;;;;;;4135918;28;20474;-84
2021/05/27 00:45:57;;;;;;;7.93;5.20;;;10.00;98.30;;;;;;4137544;28;20437;-84
2021/05/27 00:47:59;;;;;;;10.07;4.67;;;10.00;98.30;;;;;;4136213;28;20471;-84
2021/05/27 00:50:01;;;;;;;8.83;4.90;;;10.00;98.30;;;;;;4135182;28;20468;-84
2021/05/27 00:52:05;;;;;;;14.10;6.17;;;10.00;98.30;;;;;;4135512;28;20486;-84
2021/05/27 00:54:07;;;;;;;5.90;5.10;;;10.00;98.30;;;;;;4135173;28;20561;-84
2021/05/27 00:56:11;;;;;;;7.60;5.20;;;10.00;98.30;;;;;;4135742;28;20978;-84
2021/05/27 00:58:16;;;;;;;6.20;4.93;;;10.00;98.30;;;;;;4138007;28;20466;-84
2021/05/27 01:00:21;;;;;;;10.20;5.10;;;10.00;98.30;;;;;;4133725;28;20803;-84
2021/05/27 01:02:24;;;;;;;5.97;5.20;;;10.00;98.30;;;;;;4134467;28;20490;-84
2021/05/27 01:04:26;;;;;;;5.60;4.43;;;10.00;98.30;;;;;;4134922;28;20474;-84
2021/05/27 01:06:29;;;;;;;5.20;3.70;;;9.90;98.30;;;;;;4135575;28;21010;-85
2021/05/27 01:08:31;;;;;;;5.80;3.80;;;9.90;98.30;;;;;;4135632;28;20463;-85
2021/05/27 01:10:34;;;;;;;6.00;3.80;;;9.90;98.30;;;;;;4135653;28;20979;-85
2021/05/27 01:12:37;;;;;;;4.87;3.20;;;9.90;98.30;;;;;;4134868;28;20482;-85
2021/05/27 01:17:00;;;;;;;5.70;3.53;;;9.90;98.30;;;;;;4135042;28;20492;-85
2021/05/27 01:19:03;;;;;;;4.20;3.70;;;9.90;98.30;;;;;;4134570;28;20466;-85
2021/05/27 01:21:06;;;;;;;8.73;4.40;;;9.90;98.30;;;;;;4134950;28;20474;-85
2021/05/27 01:23:10;;;;;;;5.00;4.23;;;10.00;98.30;;;;;;4136580;28;20869;-85
2021/05/27 01:25:13;;;;;;;6.13;4.60;;;10.00;98.30;;;;;;4135712;28;20836;-85
2021/05/27 01:27:16;;;;;;;7.67;4.80;;;10.00;98.30;;;;;;4135917;28;20885;-85
2021/05/27 01:29:18;;;;;;;6.77;5.30;;;10.00;98.30;;;;;;4135207;28;20458;-84
2021/05/27 01:31:21;;;;;;;9.30;5.00;;;10.00;98.30;;;;;;4135675;28;20490;-85
2021/05/27 01:33:24;;;;;;;7.13;4.30;;;10.00;98.30;;;;;;4132870;28;20469;-85
2021/05/27 01:35:27;;;;;;;10.03;5.93;;;10.00;98.30;;;;;;4135070;28;20471;-85
2021/05/27 01:37:31;;;;;;;5.67;4.23;;;10.00;98.30;;;;;;4135477;28;20499;-85
2021/05/27 01:39:34;;;;;;;9.33;5.60;;;10.00;98.30;;;;;;4135296;28;20952;-85
2021/05/27 01:41:37;;;;;;;7.33;5.03;;;10.00;98.30;;;;;;4134858;28;21009;-85
2021/05/27 01:43:39;;;;;;;5.27;4.50;;;10.00;98.30;;;;;;4133489;28;20821;-85
2021/05/27 01:45:43;;;;;;;8.50;5.33;;;9.90;98.30;;;;;;4134296;28;20466;-85
2021/05/27 01:47:46;;;;;;;6.90;4.73;;;9.90;98.30;;;;;;4134003;28;20477;-85
2021/05/27 01:49:48;;;;;;;10.90;5.50;;;9.90;98.30;;;;;;4131266;28;20549;-85
2021/05/27 01:51:51;;;;;;;8.20;6.03;;;9.90;98.30;;;;;;4133321;28;20863;-85
2021/05/27 01:53:53;;;;;;;11.90;4.90;;;9.90;98.30;;;;;;4136215;28;20474;-84
2021/05/27 01:55:56;;;;;;;7.73;4.73;;;9.90;98.30;;;;;;4135457;28;20470;-83
2021/05/27 01:57:59;;;;;;;6.37;4.87;;;9.90;98.30;;;;;;4138539;28;20482;-85
2021/05/27 02:00:03;;;;;;;7.03;4.90;;;9.90;98.30;;;;;;4133467;28;20468;-84
2021/05/27 02:02:05;;;;;;;6.33;4.57;;;10.00;98.30;;;;;;4134912;28;20490;-84
2021/05/27 02:04:08;;;;;;;7.23;4.37;;;9.90;98.30;;;;;;4132442;28;20467;-84
2021/05/27 02:06:10;;;;;;;9.17;4.97;;;9.90;98.30;;;;;;4132681;28;20474;-85
2021/05/27 02:08:13;;;;;;;4.63;3.90;;;9.80;98.30;;;;;;4135665;28;20525;-84
2021/05/27 02:10:16;;;;;;;6.07;4.67;;;9.80;98.30;;;;;;4135343;28;20485;-84
2021/05/27 02:12:19;;;;;;;5.13;4.13;;;9.80;98.30;;;;;;4136359;28;20464;-84
2021/05/27 02:14:22;;;;;;;5.67;4.13;;;9.80;98.30;;;;;;4132988;28;20476;-84
2021/05/27 02:16:24;;;;;;;5.90;3.90;;;9.80;98.30;;;;;;4133343;28;20497;-84
2021/05/27 02:18:27;;;;;;;10.23;3.90;;;9.80;98.30;;;;;;4132971;28;20463;-84
2021/05/27 02:20:30;;;;;;;5.33;3.57;;;9.70;98.30;;;;;;4134496;28;20511;-84
2021/05/27 02:22:32;;;;;;;4.83;3.70;;;9.80;98.30;;;;;;4136028;28;20843;-84
2021/05/27 02:24:35;;;;;;;11.17;5.87;;;9.80;98.30;;;;;;4134275;28;20936;-84
2021/05/27 02:26:38;;;;;;;5.73;4.17;;;9.80;98.30;;;;;;4134395;28;20573;-84
2021/05/27 02:28:41;;;;;;;6.77;4.03;;;9.80;98.30;;;;;;4134713;28;20467;-85
2021/05/27 02:30:43;;;;;;;10.57;4.20;;;9.80;98.30;;;;;;4135241;28;20458;-85
2021/05/27 02:32:46;;;;;;;6.33;3.90;;;9.80;98.30;;;;;;4134897;28;21031;-84
2021/05/27 02:34:48;;;;;;;4.40;4.00;;;9.80;98.30;;;;;;4133651;28;20838;-84
2021/05/27 02:36:51;;;;;;;4.83;3.90;;;9.80;98.30;;;;;;4135264;28;21005;-84
2021/05/27 02:38:54;;;;;;;10.60;3.40;;;9.80;98.30;;;;;;4133536;28;20466;-84
2021/05/27 02:40:56;;;;;;;5.43;3.23;;;9.70;98.30;;;;;;4134733;28;20520;-84
2021/05/27 02:42:59;;;;;;;6.03;3.23;;;9.70;98.30;;;;;;4133527;28;20473;-84
2021/05/27 02:45:03;;;;;;;5.63;3.20;;;9.60;98.30;;;;;;4132816;28;20569;-84
2021/05/27 02:47:05;;;;;;;5.20;2.87;;;9.60;98.30;;;;;;4136488;28;20463;-84
2021/05/27 02:49:08;;;;;;;3.43;2.90;;;9.60;98.30;;;;;;4136932;28;20467;-83
2021/05/27 02:51:11;;;;;;;5.33;3.80;;;9.60;98.30;;;;;;4133320;28;20562;-84
2021/05/27 02:53:13;;;;;;;6.53;3.87;;;9.70;98.30;;;;;;4135825;28;20474;-84
2021/05/27 02:55:16;;;;;;;7.50;4.43;;;9.60;98.30;;;;;;4134658;28;21169;-83
2021/05/27 02:57:18;;;;;;;8.47;3.70;;;9.60;98.30;;;;;;4132446;28;20844;-84
2021/05/27 02:59:20;;;;;;;7.73;4.00;;;9.60;98.30;;;;;;4134737;28;20467;-84
2021/05/27 03:01:24;;;;;;;4.13;3.63;;;9.60;98.30;;;;;;4135390;28;20541;-84
2021/05/27 03:03:26;;;;;;;9.03;3.90;;;9.60;98.30;;;;;;4134734;28;20468;-84
2021/05/27 03:05:29;;;;;;;4.20;3.10;;;9.60;98.30;;;;;;4133659;28;20830;-83
2021/05/27 03:07:32;;;;;;;3.60;3.00;;;9.50;98.30;;;;;;4134559;28;20558;-83
2021/05/27 03:09:34;;;;;;;6.83;3.37;;;9.50;98.30;;;;;;4134659;28;20467;-83
2021/05/27 03:11:37;;;;;;;5.60;3.60;;;9.50;98.30;;;;;;4134847;28;21177;-84
2021/05/27 03:13:40;;;;;;;6.37;3.00;;;9.50;98.30;;;;;;4132839;28;20475;-85
2021/05/27 03:15:43;;;;;;;3.47;3.17;;;9.40;98.30;;;;;;4134934;28;20471;-84
2021/05/27 03:17:46;;;;;;;4.80;3.20;;;9.40;98.30;;;;;;4133777;28;20494;-84
2021/05/27 03:19:48;;;;;;;4.07;3.03;;;9.40;98.30;;;;;;4133354;28;20467;-84
2021/05/27 03:21:51;;;;;;;6.50;3.13;;;9.40;98.30;;;;;;4133754;28;20533;-84
2021/05/27 03:23:53;;;;;;;5.97;3.10;;;9.30;98.30;;;;;;4134283;28;20473;-83
2021/05/27 03:25:59;;;;;;;5.20;4.07;;;9.30;98.30;;;;;;4133649;28;20477;-84
2021/05/27 03:28:02;;;;;;;4.70;2.83;;;9.30;98.30;;;;;;4134354;28;20930;-84
2021/05/27 03:30:06;;;;;;;3.30;2.70;;;9.20;98.30;;;;;;4133053;28;20475;-84
2021/05/27 03:32:08;;;;;;;2.90;2.60;;;9.20;98.30;;;;;;4135134;28;20497;-84
2021/05/27 03:34:12;;;;;;;4.53;2.77;;;9.20;98.30;;;;;;4133195;28;20477;-84
2021/05/27 03:36:16;;;;;;;3.50;2.90;;;9.20;98.30;;;;;;4133896;28;20484;-85
2021/05/27 03:38:24;;;;;;;8.13;3.20;;;9.20;98.30;;;;;;4133767;28;20541;-84
2021/05/27 03:40:27;;;;;;;3.23;2.50;;;9.20;98.30;;;;;;4132949;28;21093;-84
2021/05/27 03:42:30;;;;;;;2.50;2.30;;;9.20;98.30;;;;;;4133464;28;20547;-84
2021/05/27 03:44:32;;;;;;;3.27;2.97;;;9.20;98.30;;;;;;4132891;28;20471;-84
2021/05/27 03:46:35;;;;;;;4.87;3.27;;;9.20;98.30;;;;;;4136165;28;21006;-84
2021/05/27 03:48:38;;;;;;;2.83;2.63;;;9.20;98.30;;;;;;4138274;28;20481;-84
2021/05/27 03:50:41;;;;;;;3.33;3.03;;;9.20;98.30;;;;;;4138321;28;20497;-84
2021/05/27 03:52:44;;;;;;;4.57;3.70;;;9.20;98.30;;;;;;4137409;28;20895;-84
2021/05/27 03:54:46;;;;;;;3.20;2.90;;;9.20;98.30;;;;;;4134749;28;20482;-84
2021/05/27 03:56:49;;;;;;;3.57;2.90;;;9.20;98.30;;;;;;4137272;28;21046;-84
2021/05/27 04:01:11;;;;;;;4.83;3.33;;;9.10;98.30;;;;;;4125816;28;21141;-84
2021/05/27 04:03:14;;;;;;;3.17;2.67;;;9.10;98.30;;;;;;4136708;28;20487;-84
2021/05/27 04:07:38;;;;;;;6.90;4.17;;;9.20;98.30;;;;;;4135682;28;20948;-84
2021/05/27 04:09:42;;;;;;;3.83;3.20;;;9.20;98.30;;;;;;4137380;28;20471;-84
2021/05/27 04:11:44;;;;;;;5.50;3.50;;;9.20;98.30;;;;;;4134373;28;20465;-84
2021/05/27 04:13:47;;;;;;;4.10;3.70;;;9.20;98.30;;;;;;4137249;28;20477;-84
2021/05/27 04:15:51;;;;;;;6.10;4.00;;;9.20;98.30;;;;;;4137110;28;20975;-85
2021/05/27 04:17:59;;;;;;;6.97;4.07;;;9.30;98.30;;;;;;4136329;28;21080;-85
2021/05/27 04:20:02;;;;;;;12.63;5.60;;;9.30;98.30;;;;;;4135621;28;21029;-84
2021/05/27 04:22:04;;;;;;;9.33;5.07;;;9.30;98.30;;;;;;4136034;28;20506;-84
2021/05/27 04:24:09;;;;;;;9.07;5.00;;;9.30;98.30;;;;;;4136349;28;20482;-84
2021/05/27 04:26:13;;;;;;;7.83;4.00;;;9.30;98.30;;;;;;4137328;28;22559;-84
2021/05/27 04:28:16;;;;;;;5.90;5.30;;;9.30;98.30;;;;;;4136542;28;21047;-83
2021/05/27 04:30:20;;;;;;;7.30;4.73;;;9.40;98.30;;;;;;4135995;28;20845;-84
2021/05/27 04:34:54;;;;;;;8.63;6.20;;;9.40;98.30;;;;;;4086281;29;20470;-84
2021/05/27 04:36:57;;;;;;;9.10;6.57;;;9.40;98.30;;;;;;4110977;28;20454;-84
2021/05/27 04:38:59;;;;;;;7.37;5.37;;;9.40;98.30;;;;;;4137353;28;20469;-84
2021/05/27 04:41:04;;;;;;;7.33;5.40;;;9.50;98.30;;;;;;4137713;28;20833;-84
2021/05/27 04:43:09;;;;;;;6.50;5.60;;;9.50;98.30;;;;;;4137077;28;20948;-84
2021/05/27 04:45:13;;;;;;;12.20;6.00;;;9.50;98.30;;;;;;4136769;28;20833;-84
2021/05/27 04:47:16;;;;;;;8.70;6.13;;;9.50;98.30;;;;;;4136513;28;20965;-84
2021/05/27 04:49:18;;;;;;;9.17;5.30;;;9.60;98.30;;;;;;4136446;28;20462;-84
2021/05/27 04:51:25;;;;;;;11.27;5.83;;;9.60;98.30;;;;;;4136252;28;20517;-84
2021/05/27 04:53:28;;;;;;;9.90;5.27;;;9.60;98.30;;;;;;4136489;28;20474;-84
2021/05/27 04:55:31;;;;;;;10.43;6.60;;;9.60;98.30;;;;;;4136729;28;20473;-85
2021/05/27 04:57:34;;;;;;;6.40;5.40;;;9.60;98.30;;;;;;4135014;28;20852;-84
2021/05/27 04:59:37;;;;;;;6.27;5.67;;;9.60;98.30;;;;;;4134190;28;20544;-84
2021/05/27 05:01:40;;;;;;;7.27;6.13;;;9.60;98.30;;;;;;4135981;28;20498;-84
2021/05/27 05:03:43;;;;;;;9.30;5.97;;;9.60;98.30;;;;;;4137139;28;20467;-84
2021/05/27 05:05:46;;;;;;;12.00;5.93;;;9.60;98.30;;;;;;4136746;28;20477;-84
2021/05/27 05:07:49;;;;;;;12.53;5.63;;;9.60;98.30;;;;;;4135771;28;20437;-85
2021/05/27 05:09:52;;;;;;;7.77;5.10;;;9.70;98.30;;;;;;4136812;28;21038;-84
2021/05/27 05:11:54;;;;;;;8.83;5.77;;;9.70;98.30;;;;;;4136046;28;20545;-84
2021/05/27 05:13:59;;;;;;;11.40;4.60;;;9.70;98.30;;;;;;4135051;28;20466;-84
2021/05/27 05:16:01;;;;;;;10.37;6.57;;;9.70;98.30;;;;;;4135245;28;20888;-84
2021/05/27 05:18:06;;;;;;;6.93;5.10;;;9.70;98.30;;;;;;4135944;28;20489;-85
2021/05/27 05:20:09;;;;;;;8.30;5.00;;;9.70;98.30;;;;;;4135242;28;20482;-84
2021/05/27 05:22:12;;;;;;;7.63;6.73;;;9.70;98.30;;;;;;4136012;28;20496;-85
2021/05/27 05:24:15;;;;;;;13.33;5.50;;;9.70;98.30;;;;;;4134657;28;21046;-85
2021/05/27 05:26:17;;;;;;;8.87;5.40;;;9.70;98.30;;;;;;4135642;28;20471;-85
2021/05/27 05:28:20;;;;;;;8.40;6.47;;;9.70;98.30;;;;;;4135631;28;20471;-84
2021/05/27 05:30:26;;;;;;;7.90;5.20;;;9.80;98.30;;;;;;4134648;28;20475;-84
2021/05/27 05:32:28;;;;;;;8.80;5.37;;;9.80;98.30;;;;;;4135792;28;20536;-85
2021/05/27 05:34:31;;;;;;;7.87;5.40;;;9.70;98.30;;;;;;4136699;28;20503;-84
2021/05/27 05:36:34;;;;;;;7.07;5.83;;;9.80;98.30;;;;;;4135996;28;20979;-84
2021/05/27 05:38:36;;;;;;;6.90;5.70;;;9.80;98.30;;;;;;4134147;28;20489;-84
2021/05/27 05:40:39;;;;;;;8.60;5.63;;;9.80;98.30;;;;;;4135217;28;20470;-85
2021/05/27 05:42:42;;;;;;;7.17;5.73;;;9.80;98.30;;;;;;4135157;28;20496;-85
2021/05/27 05:44:45;;;;;;;10.10;6.10;;;9.90;98.30;;;;;;4136273;28;20836;-84
2021/05/27 05:46:48;;;;;;;7.50;5.70;;;9.90;98.30;;;;;;4134137;28;20830;-85
2021/05/27 05:48:51;;;;;;;6.47;5.37;;;9.90;98.30;;;;;;4135209;28;20495;-84
2021/05/27 05:50:57;;;;;;;8.80;5.03;;;9.90;98.30;;;;;;4135036;28;20499;-84
2021/05/27 05:53:00;;;;;;;7.30;5.10;;;9.90;98.30;;;;;;4135291;28;20565;-84
2021/05/27 05:55:03;;;;;;;7.60;5.60;;;9.90;98.30;;;;;;4135373;28;20473;-85
2021/05/27 05:57:06;;;;;;;6.63;5.13;;;10.00;98.30;;;;;;4134445;28;20502;-85
2021/05/27 05:59:08;;;;;;;6.53;5.73;;;10.00;98.30;;;;;;4134825;28;20522;-84
2021/05/27 06:01:11;;;;;;;8.07;5.73;;;10.00;98.30;;;;;;4133577;28;20466;-85
2021/05/27 06:03:14;;;;;;;11.80;5.50;;;10.00;98.30;;;;;;4134547;28;20473;-85
2021/05/27 06:05:17;;;;;;;9.20;5.80;;;10.10;98.30;;;;;;4134198;28;20498;-84
2021/05/27 06:07:20;;;;;;;7.10;5.50;;;10.10;98.30;;;;;;4134690;28;20562;-85
2021/05/27 06:09:24;;;;;;;7.40;5.10;;;10.10;98.30;;;;;;4134802;28;20554;-84
2021/05/27 06:11:27;;;;;;;6.80;5.17;;;10.10;98.30;;;;;;4135708;28;20608;-84
2021/05/27 06:13:29;;;;;;;8.90;5.73;;;10.20;98.30;;;;;;4134440;28;20482;-84
2021/05/27 06:15:32;;;;;;;11.07;5.90;;;10.20;98.30;;;;;;4134311;28;20475;-84
2021/05/27 06:17:35;;;;;;;6.70;5.90;;;10.20;98.30;;;;;;4135539;28;20485;-84
2021/05/27 06:19:39;;;;;;;9.90;5.47;;;10.20;98.30;;;;;;4133609;28;20467;-85
2021/05/27 06:21:42;;;;;;;7.23;5.80;;;10.30;98.30;;;;;;4132712;28;21004;-84
2021/05/27 06:23:45;;;;;;;7.50;5.53;;;10.30;98.30;;;;;;4135470;28;20972;-85
2021/05/27 06:25:47;;;;;;;10.50;6.67;;;10.30;98.30;;;;;;4134995;28;20463;-85
2021/05/27 06:27:50;;;;;;;6.60;5.00;;;10.40;98.30;;;;;;4135426;28;20463;-85
2021/05/27 06:29:52;;;;;;;10.43;6.40;;;10.40;98.30;;;;;;4132417;28;20474;-84
2021/05/27 06:31:55;;;;;;;9.50;6.70;;;10.40;98.30;;;;;;4135961;28;20494;-85
2021/05/27 06:33:58;;;;;;;9.80;6.73;;;10.50;98.30;;;;;;4138778;28;20489;-84
2021/05/27 06:36:02;;;;;;;7.10;6.03;;;10.50;98.30;;;;;;4137648;28;20509;-84
2021/05/27 06:38:04;;;;;;;15.83;6.30;;;10.50;98.30;;;;;;4136630;28;20490;-84
2021/05/27 06:40:09;;;;;;;9.70;6.67;;;10.50;98.30;;;;;;4136364;28;20463;-85
2021/05/27 06:42:13;;;;;;;9.53;6.53;;;10.60;98.30;;;;;;4139204;28;20485;-84
2021/05/27 06:44:19;;;;;;;10.37;6.53;;;10.60;98.30;;;;;;4121060;28;20818;-84
2021/05/27 06:46:22;;;;;;;12.23;6.40;;;10.60;98.30;;;;;;4127565;28;20471;-84
2021/05/27 06:48:25;;;;;;;12.50;6.20;;;10.60;98.30;;;;;;4123320;28;20466;-84
2021/05/27 06:50:34;;;;;;;9.83;6.27;;;10.70;98.30;;;;;;4133273;28;20478;-85
2021/05/27 06:52:37;;;;;;;9.87;7.20;;;10.70;98.30;;;;;;4132444;28;21500;-84
2021/05/27 06:54:40;;;;;;;11.47;5.80;;;10.70;98.30;;;;;;4129473;28;20467;-84
2021/05/27 06:56:42;;;;;;;9.93;6.80;;;10.80;98.30;;;;;;4129391;28;20565;-84
2021/05/27 06:58:45;;;;;;;11.00;6.37;;;10.70;98.30;;;;;;4120570;28;20495;-84
2021/05/27 07:00:48;;;;;;;9.57;6.90;;;10.70;98.30;;;;;;4131135;28;20471;-83
2021/05/27 07:02:51;;;;;;;13.30;8.30;;;10.70;98.30;;;;;;4124523;28;20985;-84
2021/05/27 07:04:54;;;;;;;10.03;6.17;;;10.70;98.30;;;;;;4134545;28;20538;-84
2021/05/27 07:06:56;;;;;;;10.87;6.17;;;10.80;98.30;;;;;;4132965;28;20513;-84
2021/05/27 07:09:00;;;;;;;8.53;6.73;;;10.80;98.30;;;;;;4136563;28;20474;-86
2021/05/27 07:11:02;;;;;;;11.23;6.50;;;10.90;98.30;;;;;;4133039;28;20470;-85
2021/05/27 07:13:07;;;;;;;8.60;6.50;;;11.00;98.30;;;;;;4134622;28;20916;-85
2021/05/27 07:15:10;;;;;;;9.40;6.90;;;11.10;98.30;;;;;;4134895;28;20822;-84
2021/05/27 07:17:14;;;;;;;12.43;6.93;;;11.20;98.30;;;;;;4134142;28;20467;-84
2021/05/27 07:19:17;;;;;;;9.40;6.57;;;11.30;98.30;;;;;;4135705;28;20487;-84
2021/05/27 07:21:19;;;;;;;9.13;6.93;;;11.40;98.30;;;;;;4138316;28;20479;-85
2021/05/27 07:23:21;;;;;;;11.23;7.27;;;11.50;98.30;;;;;;4138082;28;20462;-84
2021/05/27 07:25:26;;;;;;;12.73;7.17;;;11.50;98.30;;;;;;4134380;28;21028;-84
2021/05/27 07:27:29;;;;;;;10.10;7.40;;;11.60;98.30;;;;;;4134306;28;20466;-84
2021/05/27 07:29:32;;;;;;;15.97;8.23;;;11.70;98.30;;;;;;4138547;28;20463;-85
2021/05/27 07:31:37;;;;;;;9.17;6.87;;;11.80;98.30;;;;;;4138958;28;20505;-86
2021/05/27 07:33:39;;;;;;;9.30;6.83;;;11.80;98.30;;;;;;4139231;28;20470;-84
2021/05/27 07:35:42;;;;;;;10.50;8.00;;;11.80;98.30;;;;;;4139549;28;20463;-84
2021/05/27 07:37:44;;;;;;;9.60;7.17;;;11.90;98.30;;;;;;4139587;28;20572;-84
2021/05/27 07:39:48;;;;;;;8.97;7.23;;;11.90;98.30;;;;;;4138601;28;20494;-84
2021/05/27 07:41:51;;;;;;;8.70;6.83;;;11.90;98.30;;;;;;4139264;28;20496;-83
2021/05/27 07:43:54;;;;;;;8.87;7.47;;;11.90;98.30;;;;;;4139309;28;21001;-84
2021/05/27 07:45:56;;;;;;;13.47;7.10;;;11.80;98.30;;;;;;4138432;28;20463;-84
2021/05/27 07:47:59;;;;;;;7.53;6.37;;;11.80;98.30;;;;;;4138876;28;20471;-84
2021/05/27 07:50:03;;;;;;;10.73;6.57;;;11.80;98.30;;;;;;4139206;28;20828;-84
2021/05/27 07:52:06;;;;;;;10.60;6.93;;;11.80;98.30;;;;;;4138334;28;20500;-85
2021/05/27 07:54:08;;;;;;;10.40;7.33;;;11.80;98.30;;;;;;4138921;28;20480;-84
2021/05/27 07:56:11;;;;;;;8.83;7.00;;;11.80;98.30;;;;;;4139702;28;20510;-84
2021/05/27 07:58:15;;;;;;;8.80;6.93;;;11.80;98.30;;;;;;4139252;28;21311;-85
2021/05/27 08:00:18;;;;;;;10.47;7.33;;;11.80;98.30;;;;;;4139314;28;20509;-84
2021/05/27 08:02:21;;;;;;;14.30;6.90;;;11.80;98.30;;;;;;4138626;28;20582;-86
2021/05/27 08:04:23;;;;;;;10.00;7.40;;;11.90;98.30;;;;;;4138616;28;20473;-84
2021/05/27 08:06:25;;;;;;;9.37;7.60;;;11.90;98.30;;;;;;4138997;28;20838;-84
2021/05/27 08:08:28;;;;;;;8.20;7.10;;;12.00;98.30;;;;;;4138449;28;20590;-84
2021/05/27 08:10:31;;;;;;;13.33;7.63;;;12.10;98.30;;;;;;4139144;28;20850;-85
2021/05/27 08:12:33;;;;;;;9.80;8.60;;;12.20;98.30;;;;;;4139587;28;20491;-84
2021/05/27 08:14:38;;;;;;;11.30;7.80;;;12.30;98.30;;;;;;4137709;28;21057;-84
2021/05/27 08:16:41;;;;;;;7.10;6.40;;;12.30;98.30;;;;;;4139762;28;20478;-86
2021/05/27 08:18:47;;;;;;;9.23;7.00;;;12.30;98.30;;;;;;4139272;28;20569;-84
2021/05/27 08:20:49;;;;;;;7.03;6.33;;;12.40;98.30;;;;;;4139030;28;20469;-84
2021/05/27 08:22:51;;;;;;;26.23;16.03;;;12.40;98.30;;;;;;4139271;28;20497;-84
2021/05/27 08:24:55;;;;;;;19.43;14.03;;;12.50;98.30;;;;;;4138559;28;20493;-84
2021/05/27 08:26:58;;;;;;;11.90;7.47;;;12.60;98.30;;;;;;4138837;28;20481;-84
2021/05/27 08:29:00;;;;;;;8.70;7.87;;;12.60;98.30;;;;;;4138296;28;20458;-86
2021/05/27 08:31:06;;;;;;;10.20;8.60;;;12.70;98.30;;;;;;4138202;28;20475;-84
2021/05/27 08:33:08;;;;;;;14.30;9.20;;;12.70;98.30;;;;;;4138597;28;20485;-84
2021/05/27 08:35:12;;;;;;;9.80;8.80;;;12.80;98.30;;;;;;4138064;28;20525;-84
2021/05/27 08:37:14;;;;;;;16.83;8.40;;;12.80;98.30;;;;;;4138031;28;20462;-84
2021/05/27 08:39:18;;;;;;;9.17;8.20;;;12.80;98.30;;;;;;4138259;28;20490;-84
2021/05/27 08:41:21;;;;;;;10.10;8.20;;;12.80;98.30;;;;;;4138679;28;20504;-85
2021/05/27 08:43:23;;;;;;;9.90;8.20;;;12.90;98.30;;;;;;4138312;28;20470;-85
2021/05/27 08:45:29;;;;;;;10.83;8.57;;;13.00;98.30;;;;;;4137678;28;20551;-84
2021/05/27 08:47:32;;;;;;;10.87;9.70;;;13.10;98.30;;;;;;4137319;28;20973;-84
2021/05/27 13:54:15;;;;;;;2.40;2.20;;;14.90;98.30;;;;;;3965322;29;21135;-83
2021/05/27 14:11:00;;;;;;;3.77;2.93;;;14.90;98.30;;;;;;4048514;29;20448;-84
2021/05/27 14:13:18;;;;;;;5.60;3.03;;;14.80;98.30;;;;;;4042561;29;20507;-82
2021/05/27 14:15:33;;;;;;;3.27;2.93;;;14.80;98.30;;;;;;4066317;29;20957;-83
2021/05/27 14:25:00;;;;;;;;;;;;;;;;;;;;;
2021/05/27 14:28:13;;;;;;;3.33;3.03;;;14.60;98.30;;;;;;4094192;29;20464;-84
2021/05/27 14:41:35;;;;;;;;;;;;;;;;;;;;;
2021/05/27 14:44:12;;;;;;;6.47;5.30;;;15.20;98.30;;;;;;4002248;29;20526;-84
2021/05/27 14:51:28;;;;;;;4.73;3.77;;;15.30;98.30;;;;;;5001326;23;21531;-83
2021/05/27 14:53:32;;;;;;;5.10;4.07;;;15.20;98.30;;;;;;4141284;28;20573;-84
2021/05/27 14:55:39;;;;;;;4.23;3.60;;;15.20;98.30;;;;;;4138184;28;20652;-85
2021/05/27 14:57:41;;;;;;;5.43;3.70;;;15.20;98.30;;;;;;4137576;28;20526;-83
2021/05/27 14:59:44;;;;;;;3.90;3.37;;;15.20;98.30;;;;;;4138033;28;20935;-83
2021/05/27 15:01:47;;;;;;;4.20;3.70;;;15.20;98.30;;;;;;4140270;28;20561;-84
2021/05/27 15:03:49;;;;;;;4.40;3.80;;;15.10;98.30;;;;;;4144249;28;20466;-85
2021/05/27 15:05:52;;;;;;;4.83;4.40;;;15.10;98.30;;;;;;4141158;28;20466;-84
2021/05/27 15:07:58;;;;;;;5.20;4.60;;;14.90;98.30;;;;;;4144185;28;20462;-83
2021/05/27 15:10:05;;;;;;;5.30;4.53;;;14.60;98.30;;;;;;4137272;28;20564;-85
2021/05/27 15:12:16;;;;;;;5.20;4.70;;;14.40;98.30;;;;;;4141103;28;20474;-83
2021/05/27 15:14:19;;;;;;;5.83;4.40;;;14.20;98.30;;;;;;4138534;28;20799;-85
2021/05/27 15:16:21;;;;;;;6.37;5.10;;;14.20;98.30;;;;;;4144053;28;20558;-84
2021/05/27 15:18:32;;;;;;;6.40;5.00;;;14.20;98.30;;;;;;4144751;28;20520;-84
2021/05/27 15:20:40;;;;;;;6.33;4.47;;;14.30;98.30;;;;;;4139229;28;21101;-87
2021/05/27 15:22:46;;;;;;;5.03;4.53;;;14.40;98.30;;;;;;4143042;28;20575;-85
2021/05/27 15:24:54;;;;;;;6.30;4.73;;;14.50;98.30;;;;;;4145825;28;20800;-84
2021/05/27 15:27:01;;;;;;;4.77;4.00;;;14.60;98.30;;;;;;4144903;28;20494;-84
2021/05/27 15:29:16;;;;;;;4.60;4.20;;;14.70;98.30;;;;;;4141008;28;20483;-83
2021/05/27 15:31:24;;;;;;;4.43;4.00;;;14.90;98.30;;;;;;4138180;28;20467;-85
2021/05/27 15:33:26;;;;;;;5.60;4.30;;;14.90;98.30;;;;;;4142822;28;20602;-83
2021/05/27 15:35:29;;;;;;;5.47;4.70;;;14.90;98.30;;;;;;4141246;28;20469;-83
2021/05/27 15:37:32;;;;;;;4.73;4.33;;;14.90;98.30;;;;;;4146104;28;20466;-83
2021/05/27 15:39:37;;;;;;;5.57;5.07;;;14.90;98.30;;;;;;4137310;28;20489;-84
2021/05/27 15:41:42;;;;;;;4.67;4.23;;;14.90;98.30;;;;;;4140713;28;20819;-83
2021/05/27 15:43:46;;;;;;;5.63;5.13;;;14.90;98.30;;;;;;4144557;28;20910;-83
2021/05/27 15:45:49;;;;;;;5.40;4.90;;;14.80;98.30;;;;;;4144033;28;20466;-83
2021/05/27 15:47:53;;;;;;;5.93;5.33;;;14.80;98.30;;;;;;4140983;28;20469;-83
2021/05/27 15:49:58;;;;;;;8.07;5.77;;;14.80;98.30;;;;;;4141200;28;20568;-84
2021/05/27 15:52:02;;;;;;;12.57;10.10;;;14.70;98.30;;;;;;4143263;28;20475;-85
2021/05/27 15:54:08;;;;;;;54.67;41.57;;;14.60;98.30;;;;;;4144166;28;20548;-83
2021/05/27 15:56:14;;;;;;;136.27;94.03;;;14.60;98.30;;;;;;4144383;28;20466;-84
2021/05/27 15:58:19;;;;;;;162.80;95.70;;;14.60;98.30;;;;;;4145969;28;20462;-83
2021/05/27 16:00:26;;;;;;;30.80;22.27;;;14.60;98.30;;;;;;4144442;28;20478;-84
2021/05/27 16:02:33;;;;;;;19.50;13.57;;;14.70;98.30;;;;;;4142142;28;20549;-84
2021/05/27 16:04:40;;;;;;;10.70;8.73;;;14.70;98.30;;;;;;4142376;28;20470;-83
2021/05/27 16:06:43;;;;;;;6.27;5.67;;;14.70;98.30;;;;;;4148508;28;20535;-83
2021/05/27 16:08:47;;;;;;;5.80;5.20;;;14.70;98.30;;;;;;4147031;28;20477;-84
2021/05/27 16:10:50;;;;;;;7.87;4.13;;;14.60;98.30;;;;;;4144851;28;20557;-84
2021/05/27 16:12:52;;;;;;;6.53;4.37;;;14.50;98.30;;;;;;4146931;28;20473;-86
2021/05/27 16:14:55;;;;;;;4.80;4.00;;;14.40;98.30;;;;;;4143603;28;20480;-83
2021/05/27 16:16:58;;;;;;;4.97;3.90;;;14.50;98.30;;;;;;4146661;28;20527;-83
2021/05/27 16:19:01;;;;;;;4.77;3.83;;;14.50;98.30;;;;;;4141744;28;20496;-83
2021/05/27 16:21:05;;;;;;;5.10;3.77;;;14.50;98.30;;;;;;4147581;28;20506;-83
2021/05/27 16:23:07;;;;;;;4.07;3.67;;;14.60;98.30;;;;;;4149067;28;20470;-83
2021/05/27 16:25:11;;;;;;;5.00;3.80;;;14.80;98.30;;;;;;4139174;28;20510;-85
2021/05/27 16:27:15;;;;;;;3.60;3.30;;;14.90;98.30;;;;;;4140303;28;20473;-84
2021/05/27 16:29:20;;;;;;;4.27;3.57;;;15.00;98.30;;;;;;4151017;28;20490;-85
2021/05/27 16:31:24;;;;;;;4.40;3.73;;;14.90;98.30;;;;;;4143315;28;21053;-85
2021/05/27 16:33:28;;;;;;;5.23;3.13;;;14.80;98.30;;;;;;4140094;28;20470;-84
2021/05/27 16:35:35;;;;;;;4.23;3.50;;;14.80;98.30;;;;;;4140086;28;20971;-85
2021/05/27 16:40:04;;;;;;;3.20;2.93;;;14.80;98.30;;;;;;4139050;28;20505;-85
2021/05/27 16:42:07;;;;;;;4.03;2.90;;;14.80;98.30;;;;;;4139246;28;20568;-85